createdAt,value
2018-08-23T00:02:26.549Z,5.00
2018-08-23T00:07:29.943Z,4.43
2018-08-23T00:12:43.472Z,3.83
2018-08-23T00:17:47.317Z,4.33
2018-08-23T00:22:50.546Z,3.93
2018-08-23T00:27:53.785Z,4.00
2018-08-23T00:32:57.888Z,3.90
2018-08-23T00:38:01.730Z,4.23
2018-08-23T00:43:05.767Z,4.37
2018-08-23T00:48:09.184Z,4.47
2018-08-23T00:53:12.741Z,3.60
2018-08-23T00:58:15.923Z,4.00
2018-08-23T01:03:19.319Z,4.40
2018-08-23T01:08:27.949Z,4.53
2018-08-23T01:13:31.471Z,4.87
2018-08-23T01:18:35.065Z,4.57
2018-08-23T01:23:39.392Z,4.37
2018-08-23T01:28:42.570Z,4.37
2018-08-23T01:33:45.996Z,4.23
2018-08-23T01:38:49.166Z,3.53
2018-08-23T01:43:52.650Z,3.10
2018-08-23T01:48:55.819Z,3.40
2018-08-23T01:53:59.263Z,4.27
2018-08-23T01:59:02.716Z,4.30
2018-08-23T02:04:06.260Z,3.90
2018-08-23T02:09:09.547Z,3.20
2018-08-23T02:14:13.090Z,4.27
2018-08-23T02:19:17.120Z,4.27
2018-08-23T02:24:25.041Z,3.83
2018-08-23T02:29:37.567Z,3.27
2018-08-23T02:34:42.821Z,4.27
2018-08-23T02:39:46.765Z,4.30
2018-08-23T02:44:49.966Z,3.23
2018-08-23T02:49:53.202Z,3.60
2018-08-23T02:54:56.589Z,4.20
2018-08-23T02:59:59.820Z,4.20
2018-08-23T03:05:03.103Z,3.87
2018-08-23T03:10:06.719Z,3.00
2018-08-23T03:15:10.258Z,3.90
2018-08-23T03:20:17.807Z,3.80
2018-08-23T03:25:22.364Z,3.43
2018-08-23T03:30:25.805Z,4.10
2018-08-23T03:35:29.036Z,3.90
2018-08-23T03:40:32.641Z,3.80
2018-08-23T03:45:35.852Z,2.73
2018-08-23T03:50:44.414Z,3.00
2018-08-23T03:55:58.972Z,2.80
2018-08-23T04:01:03.356Z,2.90
2018-08-23T04:06:22.227Z,3.10
2018-08-23T04:11:25.448Z,3.10
2018-08-23T04:16:29.969Z,2.63
2018-08-23T04:21:33.209Z,3.80
2018-08-23T04:26:36.403Z,3.30
2018-08-23T04:31:39.642Z,3.00
2018-08-23T04:36:43.556Z,3.13
2018-08-23T04:41:49.714Z,3.53
2018-08-23T04:46:53.396Z,2.50
2018-08-23T04:51:56.659Z,2.93
2018-08-23T04:57:00.172Z,2.70
2018-08-23T05:02:03.875Z,2.57
2018-08-23T05:07:07.087Z,2.83
2018-08-23T05:12:10.257Z,2.50
2018-08-23T05:17:14.421Z,2.77
2018-08-23T05:22:17.651Z,2.73
2018-08-23T05:27:21.070Z,2.70
2018-08-23T05:32:24.250Z,3.00
2018-08-23T05:37:27.504Z,2.80
2018-08-23T05:42:46.822Z,2.70
2018-08-23T05:47:50.708Z,2.53
2018-08-23T05:52:54.074Z,2.50
2018-08-23T05:58:03.360Z,1.97
2018-08-23T06:03:06.835Z,2.40
2018-08-23T06:08:10.749Z,2.83
2018-08-23T06:13:14.684Z,2.60
2018-08-23T06:18:18.935Z,2.90
2018-08-23T06:23:23.049Z,2.53
2018-08-23T06:28:27.666Z,2.80
2018-08-23T06:33:39.116Z,2.33
2018-08-23T06:38:46.639Z,2.30
2018-08-23T06:43:49.904Z,2.13
2018-08-23T06:48:53.364Z,2.67
2018-08-23T06:54:01.135Z,2.20
2018-08-23T06:59:04.506Z,2.70
2018-08-23T07:04:13.093Z,2.70
2018-08-23T07:09:17.790Z,2.60
2018-08-23T07:14:21.387Z,2.83
2018-08-23T07:19:31.030Z,2.10
2018-08-23T07:24:46.679Z,1.80
2018-08-23T07:29:52.105Z,2.40
2018-08-23T07:35:02.711Z,3.00
2018-08-23T07:40:11.523Z,2.80
2018-08-23T07:45:14.932Z,2.50
2018-08-23T07:50:19.131Z,3.00
2018-08-23T07:55:22.349Z,2.07
2018-08-23T08:00:30.317Z,1.90
2018-08-23T08:05:36.523Z,1.83
2018-08-23T08:10:45.905Z,1.77
2018-08-23T08:15:49.231Z,1.90
2018-08-23T08:21:01.427Z,1.80
2018-08-23T08:26:04.947Z,1.63
2018-08-23T08:31:08.650Z,2.20
2018-08-23T08:36:12.738Z,2.57
2018-08-23T08:41:16.150Z,2.60
2018-08-23T08:46:19.378Z,2.77
2018-08-23T08:51:24.407Z,2.50
2018-08-23T08:56:33.659Z,2.33
2018-08-23T09:01:37.027Z,1.70
2018-08-23T09:06:44.320Z,1.53
2018-08-23T09:11:47.873Z,1.50
2018-08-23T09:16:51.218Z,1.73
2018-08-23T09:22:05.077Z,1.57
2018-08-23T09:27:17.051Z,1.63
2018-08-23T09:32:25.781Z,2.10
2018-08-23T09:37:30.650Z,1.90
2018-08-23T09:42:35.046Z,1.27
2018-08-23T09:47:38.503Z,1.77
2018-08-23T09:52:43.619Z,2.00
2018-08-23T09:57:47.331Z,1.90
2018-08-23T10:02:55.977Z,2.17
2018-08-23T10:08:04.658Z,2.13
2018-08-23T10:13:13.365Z,1.80
2018-08-23T10:18:25.634Z,2.07
2018-08-23T10:23:29.000Z,1.50
2018-08-23T10:28:38.345Z,1.43
2018-08-23T10:33:41.721Z,2.13
2018-08-23T10:38:45.129Z,1.80
2018-08-23T10:43:49.407Z,2.10
2018-08-23T10:48:52.921Z,2.10
2018-08-23T10:53:56.250Z,2.00
2018-08-23T10:58:59.558Z,1.73
2018-08-23T11:04:08.847Z,1.53
2018-08-23T11:09:17.893Z,1.80
2018-08-23T11:14:26.506Z,1.50
2018-08-23T11:19:35.266Z,1.93
2018-08-23T11:24:38.630Z,1.73
2018-08-23T11:29:42.035Z,1.83
2018-08-23T11:34:45.395Z,1.67
2018-08-23T11:39:49.283Z,2.10
2018-08-23T11:44:53.696Z,2.10
2018-08-23T11:49:57.098Z,1.77
2018-08-23T11:55:00.900Z,3.10
2018-08-23T12:00:05.025Z,1.30
2018-08-23T12:05:08.426Z,1.97
2018-08-23T12:10:11.742Z,1.50
2018-08-23T12:15:19.928Z,1.40
2018-08-23T12:20:23.141Z,1.63
2018-08-23T12:25:26.577Z,1.47
2018-08-23T12:30:31.852Z,1.77
2018-08-23T12:35:35.639Z,2.00
2018-08-23T12:40:44.316Z,2.20
2018-08-23T12:45:48.251Z,1.90
2018-08-23T12:50:51.554Z,1.90
2018-08-23T12:55:54.924Z,2.30
2018-08-23T13:00:58.589Z,1.33
2018-08-23T13:06:02.751Z,1.80
2018-08-23T13:11:07.003Z,1.47
2018-08-23T13:16:11.104Z,2.13
2018-08-23T13:21:15.536Z,1.80
2018-08-23T13:26:19.225Z,2.33
2018-08-23T13:31:22.712Z,2.37
2018-08-23T13:36:26.785Z,2.33
2018-08-23T13:41:30.362Z,2.17
2018-08-23T13:46:35.246Z,1.73
2018-08-23T13:51:38.968Z,1.90
2018-08-23T13:56:42.506Z,1.90
2018-08-23T14:01:45.975Z,2.30
2018-08-23T14:06:49.383Z,2.27
2018-08-23T14:11:52.862Z,2.60
2018-08-23T14:16:56.249Z,2.27
2018-08-23T14:21:59.533Z,2.17
2018-08-23T14:27:02.973Z,2.27
2018-08-23T14:32:06.855Z,1.70
2018-08-23T14:37:10.229Z,2.07
2018-08-23T14:42:14.673Z,2.23
2018-08-23T14:47:23.482Z,1.97
2018-08-23T14:52:26.851Z,1.80
2018-08-23T14:57:33.053Z,2.10
2018-08-23T15:02:37.452Z,2.07
2018-08-23T15:07:40.834Z,2.20
2018-08-23T15:12:44.135Z,2.00
2018-08-23T15:17:47.648Z,2.33
2018-08-23T15:22:51.240Z,1.70
2018-08-23T15:27:54.949Z,1.90
2018-08-23T15:32:58.310Z,1.97
2018-08-23T15:38:01.598Z,1.90
2018-08-23T15:43:04.929Z,1.30
2018-08-23T15:48:08.436Z,1.90
2018-08-23T15:53:12.182Z,1.83
2018-08-23T15:58:15.997Z,1.87
2018-08-23T16:03:19.676Z,2.33
2018-08-23T16:08:22.935Z,2.00
2018-08-23T16:13:26.269Z,2.07
2018-08-23T16:18:35.183Z,2.90
2018-08-23T16:23:38.696Z,2.30
2018-08-23T16:28:42.067Z,1.70
2018-08-23T16:33:46.499Z,1.73
2018-08-23T16:38:50.296Z,1.40
2018-08-23T16:43:53.900Z,1.80
2018-08-23T16:48:58.369Z,2.60
2018-08-23T16:54:01.759Z,2.23
2018-08-23T16:59:05.466Z,1.90
2018-08-23T17:04:09.290Z,2.40
2018-08-23T17:09:12.427Z,1.90
2018-08-23T17:14:16.493Z,2.03
2018-08-23T17:19:19.816Z,1.70
2018-08-23T17:24:23.139Z,2.03
2018-08-23T17:29:26.411Z,1.43
2018-08-23T17:34:29.703Z,2.33
2018-08-23T17:39:33.020Z,2.17
2018-08-23T17:44:36.384Z,2.10
2018-08-23T17:49:40.176Z,2.30
2018-08-23T17:54:43.553Z,1.87
2018-08-23T17:59:47.047Z,2.10
2018-08-23T18:04:50.757Z,2.00
2018-08-23T18:09:55.256Z,2.30
2018-08-23T18:14:59.535Z,1.90
2018-08-23T18:20:03.661Z,1.80
2018-08-23T18:25:06.911Z,3.00
2018-08-23T18:30:10.805Z,2.17
2018-08-23T18:35:14.211Z,2.13
2018-08-23T18:40:17.562Z,2.17
2018-08-23T18:45:20.786Z,2.40
2018-08-23T18:50:24.222Z,2.30
2018-08-23T18:55:27.894Z,2.33
2018-08-23T19:00:31.265Z,1.70
2018-08-23T19:05:35.381Z,1.90
2018-08-23T19:10:38.827Z,2.30
2018-08-23T19:15:47.632Z,2.20
2018-08-23T19:20:51.232Z,2.00
2018-08-23T19:25:54.668Z,2.50
2018-08-23T19:30:59.015Z,2.00
2018-08-23T19:36:02.470Z,2.50
2018-08-23T19:41:07.259Z,2.37
2018-08-23T19:46:16.203Z,1.80
2018-08-23T19:51:20.109Z,2.20
2018-08-23T19:56:24.366Z,1.97
2018-08-23T20:01:29.005Z,2.67
2018-08-23T20:06:34.280Z,2.57
2018-08-23T20:11:38.149Z,2.80
2018-08-23T20:16:42.024Z,2.60
2018-08-23T20:21:45.375Z,2.53
2018-08-23T20:26:49.716Z,2.93
2018-08-23T20:31:53.750Z,2.30
2018-08-23T20:36:58.705Z,2.60
2018-08-23T20:42:02.858Z,2.63
2018-08-23T20:47:09.025Z,2.73
2018-08-23T20:52:13.083Z,3.50
2018-08-23T20:57:17.393Z,2.80
2018-08-23T21:02:21.233Z,2.73
2018-08-23T21:07:24.763Z,3.43
2018-08-23T21:12:29.311Z,2.97
2018-08-23T21:17:33.327Z,3.50
2018-08-23T21:22:37.298Z,2.97
2018-08-23T21:27:40.975Z,2.30
2018-08-23T21:32:46.747Z,2.83
2018-08-23T21:37:51.290Z,3.40
2018-08-23T21:42:55.195Z,3.80
2018-08-23T21:47:59.206Z,3.93
2018-08-23T21:53:03.226Z,3.37
2018-08-23T21:58:09.806Z,3.90
2018-08-23T22:03:14.050Z,4.37
2018-08-23T22:08:17.725Z,3.70
2018-08-23T22:13:21.861Z,3.47
2018-08-23T22:18:25.512Z,3.97
2018-08-23T22:23:29.292Z,3.57
2018-08-23T22:28:32.789Z,4.00
2018-08-23T22:33:36.321Z,4.20
2018-08-23T22:38:39.866Z,3.73
2018-08-23T22:43:43.405Z,3.73
2018-08-23T22:48:48.634Z,4.43
2018-08-23T22:53:52.195Z,4.13
2018-08-23T22:58:56.114Z,4.47
2018-08-23T23:04:04.844Z,3.80
2018-08-23T23:09:11.096Z,4.33
2018-08-23T23:14:14.537Z,3.70
2018-08-23T23:19:18.012Z,4.07
2018-08-23T23:24:26.483Z,3.80
2018-08-23T23:29:29.758Z,4.30
2018-08-23T23:34:33.183Z,3.57
2018-08-23T23:39:36.444Z,4.03
2018-08-23T23:44:40.927Z,3.60
2018-08-23T23:49:44.087Z,4.00
2018-08-23T23:54:47.397Z,4.10
2018-08-23T23:59:50.646Z,4.27
